Time;durP1;ratioP1;P1;durP2;ratioP2;P2;SDS_P1;SDS_P2;PMS_P1;PMS_P2;Temp;Humidity;BMP_temperature;BMP_pressure;BME280_temperature;BME280_humidity;BME280_pressure;Samples;Min_cycle;Max_cycle;Signal;HPM_P1;HPM_P2
2022/01/30 14:26:30;;;;;;;15.60;4.28;;;14.70;73.40;;;;;;2299380;62;30025;-74
2022/01/30 14:29:09;;;;;;;19.55;5.15;;;14.80;74.30;;;;;;2291227;62;29853;-71
2022/01/30 14:31:48;;;;;;;13.02;4.28;;;14.80;75.70;;;;;;2290049;62;30186;-71
2022/01/30 14:34:14;;;;;;;11.27;4.18;;;14.80;75.80;;;;;;2283802;62;30977;-71
2022/01/30 14:36:40;;;;;;;14.25;4.53;;;14.80;76.70;;;;;;2290930;62;31360;-72
2022/01/30 14:39:05;;;;;;;8.82;3.78;;;14.70;77.10;;;;;;2291119;62;30099;-72
2022/01/30 14:41:34;;;;;;;11.60;3.33;;;14.80;77.30;;;;;;2290689;62;30111;-71
2022/01/30 14:44:00;;;;;;;9.90;3.65;;;14.80;77.50;;;;;;2290883;62;30394;-72
2022/01/30 14:46:26;;;;;;;9.77;3.53;;;14.80;77.60;;;;;;2291162;62;30178;-73
2022/01/30 14:48:51;;;;;;;8.90;3.33;;;14.90;77.70;;;;;;2290752;62;30023;-72
2022/01/30 14:51:17;;;;;;;9.05;3.50;;;14.90;77.70;;;;;;2290965;62;30006;-72
2022/01/30 14:53:43;;;;;;;8.63;3.50;;;14.90;77.70;;;;;;2290933;62;30795;-72
2022/01/30 14:56:09;;;;;;;8.90;3.00;;;14.90;77.60;;;;;;2291161;62;30177;-72
2022/01/30 14:58:35;;;;;;;10.57;3.30;;;15.00;77.80;;;;;;2291262;62;30209;-72
2022/01/30 15:01:00;;;;;;;11.02;3.40;;;15.00;77.80;;;;;;2282825;62;30318;-72
2022/01/30 15:03:31;;;;;;;9.55;3.55;;;15.00;77.90;;;;;;2290702;62;29968;-72
2022/01/30 15:05:57;;;;;;;7.97;3.10;;;14.90;77.90;;;;;;2290706;62;30246;-72
2022/01/30 15:08:23;;;;;;;10.57;3.53;;;14.90;77.90;;;;;;2283030;62;30115;-72
2022/01/30 15:10:49;;;;;;;10.52;3.72;;;14.90;78.00;;;;;;2290999;62;29983;-72
2022/01/30 15:13:16;;;;;;;8.50;3.10;;;14.90;77.90;;;;;;2283416;62;32182;-71
2022/01/30 15:15:42;;;;;;;7.05;2.80;;;15.00;77.70;;;;;;2290521;62;30050;-71
2022/01/30 15:18:17;;;;;;;5.95;2.72;;;15.10;77.40;;;;;;2276783;62;30106;-79
2022/01/30 15:20:46;;;;;;;7.28;3.33;;;15.20;77.10;;;;;;2284143;62;30172;-73
2022/01/30 15:23:12;;;;;;;6.47;3.00;;;15.30;76.80;;;;;;2283389;62;30309;-71
2022/01/30 15:25:40;;;;;;;6.07;2.80;;;15.40;77.50;;;;;;2290643;62;30806;-79
2022/01/30 15:28:06;;;;;;;7.85;3.03;;;15.40;76.40;;;;;;2283612;62;30169;-71
2022/01/30 15:30:34;;;;;;;9.32;2.92;;;15.40;76.20;;;;;;2290779;62;30357;-72
2022/01/30 15:33:00;;;;;;;7.18;3.00;;;15.50;76.00;;;;;;2290759;62;30094;-72
2022/01/30 15:35:27;;;;;;;7.80;3.38;;;15.50;75.80;;;;;;2283511;62;31767;-74
2022/01/30 15:37:53;;;;;;;6.82;3.00;;;15.60;76.40;;;;;;2285218;62;30114;-73
2022/01/30 15:40:19;;;;;;;8.65;3.10;;;15.60;75.50;;;;;;2285472;62;30108;-75
2022/01/30 15:42:45;;;;;;;6.82;3.03;;;15.60;75.40;;;;;;2285437;62;30671;-77
2022/01/30 15:50:21;;;;;;;6.20;3.10;;;15.60;74.80;;;;;;2278948;62;30235;-75
2022/01/30 15:52:47;;;;;;;8.18;3.42;;;15.60;74.70;;;;;;2285468;62;30131;-74
2022/01/30 15:55:13;;;;;;;6.45;2.85;;;15.60;74.60;;;;;;2285299;62;30127;-72
2022/01/30 15:57:39;;;;;;;6.68;2.88;;;15.60;74.50;;;;;;2284957;62;30282;-72
2022/01/30 16:00:06;;;;;;;6.80;3.08;;;15.60;74.50;;;;;;2285264;62;30015;-72
2022/01/30 16:02:33;;;;;;;8.77;3.28;;;15.60;74.30;;;;;;2285327;62;30787;-77
2022/01/30 16:04:59;;;;;;;7.55;3.15;;;15.60;74.30;;;;;;2270897;62;30410;-71
2022/01/30 16:07:25;;;;;;;7.43;2.95;;;15.60;74.30;;;;;;2285393;62;30261;-74
2022/01/30 16:09:53;;;;;;;7.90;3.30;;;15.60;74.20;;;;;;2277673;62;30278;-71
2022/01/30 16:17:51;;;;;;;5.13;2.47;;;15.50;74.00;;;;;;2285336;62;30192;-70
2022/01/30 16:20:17;;;;;;;6.05;2.85;;;15.50;74.00;;;;;;2285010;62;30427;-73
2022/01/30 16:22:43;;;;;;;6.63;2.70;;;15.50;74.00;;;;;;2285307;62;30211;-73
2022/01/30 16:25:10;;;;;;;6.95;2.97;;;15.50;74.00;;;;;;2284811;62;30639;-74
2022/01/30 16:27:37;;;;;;;10.70;3.35;;;15.50;74.00;;;;;;2282769;62;30283;-71
2022/01/30 16:30:04;;;;;;;6.22;2.90;;;15.50;73.90;;;;;;2284149;62;30612;-73
2022/01/30 16:32:36;;;;;;;7.47;3.30;;;15.50;73.90;;;;;;2284019;62;30163;-73
2022/01/30 16:35:03;;;;;;;8.70;2.95;;;15.50;73.80;;;;;;2276874;62;30631;-73
2022/01/30 16:37:29;;;;;;;6.88;2.80;;;15.50;73.70;;;;;;2281982;62;30227;-73
2022/01/30 16:39:58;;;;;;;7.13;3.00;;;15.60;73.80;;;;;;2267898;62;30147;-75
2022/01/30 16:42:26;;;;;;;7.20;3.20;;;15.60;73.80;;;;;;2275536;62;30915;-74
2022/01/30 16:44:58;;;;;;;6.75;3.05;;;15.60;73.90;;;;;;2275694;62;30151;-74
2022/01/30 16:47:29;;;;;;;7.55;3.20;;;15.60;73.80;;;;;;2275577;62;30665;-74
2022/01/30 16:49:55;;;;;;;5.70;3.00;;;15.60;73.80;;;;;;2282829;62;30121;-73
2022/01/30 16:52:21;;;;;;;6.32;2.80;;;15.70;73.80;;;;;;2284052;62;30230;-76
2022/01/30 16:54:47;;;;;;;7.90;3.13;;;15.70;73.80;;;;;;2283724;62;30550;-76
2022/01/30 16:57:13;;;;;;;7.07;3.00;;;15.70;73.70;;;;;;2275851;62;30309;-77
2022/01/30 16:59:39;;;;;;;8.32;3.10;;;15.70;73.60;;;;;;2281213;62;30282;-73
2022/01/30 17:02:09;;;;;;;12.50;3.55;;;15.80;73.60;;;;;;2282359;62;32486;-73
2022/01/30 17:04:35;;;;;;;9.40;3.90;;;15.80;73.60;;;;;;2282719;62;30358;-74
2022/01/30 17:07:01;;;;;;;9.20;3.10;;;15.70;73.30;;;;;;2283338;62;30139;-74
2022/01/30 17:09:36;;;;;;;10.15;3.42;;;15.70;73.30;;;;;;2283587;62;30063;-73
2022/01/30 17:12:07;;;;;;;8.07;2.92;;;15.70;73.50;;;;;;2282950;62;30109;-75
2022/01/30 17:14:36;;;;;;;8.02;3.38;;;15.70;73.50;;;;;;2261741;62;30365;-73
2022/01/30 17:17:02;;;;;;;8.10;3.50;;;15.70;73.40;;;;;;2275551;62;30149;-73
2022/01/30 17:19:29;;;;;;;8.05;3.22;;;15.70;73.40;;;;;;2268292;62;30326;-75
2022/01/30 17:21:55;;;;;;;6.82;2.92;;;15.70;73.30;;;;;;2275407;62;30046;-75
2022/01/30 17:24:24;;;;;;;8.68;3.63;;;15.80;73.30;;;;;;2268120;62;30171;-76
2022/01/30 17:26:51;;;;;;;7.95;3.10;;;15.80;73.20;;;;;;2261454;62;30051;-75
2022/01/30 17:29:17;;;;;;;8.90;3.20;;;15.80;73.10;;;;;;2267936;62;30266;-75
2022/01/30 17:31:43;;;;;;;8.73;3.22;;;15.80;73.10;;;;;;2275321;62;30215;-75
2022/01/30 17:34:10;;;;;;;7.53;3.10;;;15.80;73.00;;;;;;2275306;62;30315;-76
2022/01/30 17:36:39;;;;;;;6.93;2.92;;;15.90;72.90;;;;;;2275248;62;30185;-75
2022/01/30 17:39:06;;;;;;;8.27;3.60;;;15.80;72.70;;;;;;2268085;62;30380;-76
2022/01/30 17:41:33;;;;;;;7.80;3.28;;;15.80;72.70;;;;;;2268226;62;30839;-74
2022/01/30 17:44:03;;;;;;;8.50;3.55;;;15.80;72.90;;;;;;2261419;62;30285;-75
2022/01/30 17:46:31;;;;;;;9.02;3.30;;;15.80;73.00;;;;;;2275299;62;30382;-74
2022/01/30 17:49:00;;;;;;;7.93;3.55;;;15.70;73.00;;;;;;2275460;62;30011;-75
2022/01/30 17:51:27;;;;;;;7.78;3.08;;;15.80;73.00;;;;;;2267746;62;31012;-76
2022/01/30 17:53:56;;;;;;;8.73;3.72;;;15.80;73.00;;;;;;2268134;62;30264;-75
2022/01/30 17:56:25;;;;;;;9.25;3.80;;;15.80;72.90;;;;;;2275417;62;29995;-76
2022/01/30 17:58:52;;;;;;;8.02;3.35;;;15.80;72.80;;;;;;2280690;62;30281;-78
2022/01/30 18:01:18;;;;;;;8.88;3.22;;;15.80;72.70;;;;;;2281064;62;30301;-78
2022/01/30 18:03:44;;;;;;;6.90;3.22;;;15.80;72.70;;;;;;2274630;62;30379;-77
2022/01/30 18:06:11;;;;;;;8.32;3.20;;;15.70;72.70;;;;;;2274803;62;30174;-78
2022/01/30 18:08:39;;;;;;;8.75;3.72;;;15.70;72.90;;;;;;2274799;62;30566;-76
2022/01/30 18:11:06;;;;;;;9.02;3.58;;;15.60;72.90;;;;;;2275001;62;30786;-75
2022/01/30 18:13:32;;;;;;;10.85;3.53;;;15.60;72.90;;;;;;2269513;62;30191;-75
2022/01/30 18:15:57;;;;;;;8.23;3.67;;;15.60;73.00;;;;;;2282605;62;30120;-77
2022/01/30 18:18:24;;;;;;;6.80;3.47;;;15.60;73.80;;;;;;2281972;62;29994;-76
2022/01/30 18:20:50;;;;;;;10.88;3.38;;;15.50;73.20;;;;;;2283462;62;30810;-75
2022/01/30 18:23:16;;;;;;;7.30;3.70;;;15.50;73.20;;;;;;2274563;62;31000;-75
2022/01/30 18:25:43;;;;;;;8.93;4.13;;;15.50;73.40;;;;;;2282834;62;30263;-75
2022/01/30 18:28:11;;;;;;;9.38;3.70;;;15.50;73.50;;;;;;2283523;62;29976;-75
2022/01/30 18:30:37;;;;;;;11.68;3.58;;;15.50;73.60;;;;;;2283425;62;30168;-75
2022/01/30 18:33:04;;;;;;;8.48;4.15;;;15.40;73.70;;;;;;2271298;62;30580;-75
2022/01/30 18:35:36;;;;;;;9.80;4.40;;;15.40;73.90;;;;;;2282427;62;30291;-75
2022/01/30 18:38:02;;;;;;;10.23;4.50;;;15.40;74.00;;;;;;2283135;62;30099;-76
2022/01/30 18:43:03;;;;;;;9.98;4.00;;;15.40;74.40;;;;;;2283203;62;30508;-75
2022/01/30 18:45:29;;;;;;;17.52;6.05;;;15.40;74.40;;;;;;2275812;62;30572;-71
2022/01/30 18:47:55;;;;;;;13.82;5.68;;;15.40;74.60;;;;;;2282318;62;30061;-71
2022/01/30 18:50:22;;;;;;;18.30;6.43;;;15.30;74.60;;;;;;2282405;62;30277;-73
2022/01/30 18:52:49;;;;;;;10.55;5.32;;;15.40;74.80;;;;;;2282601;62;30789;-72
2022/01/30 18:55:15;;;;;;;13.75;4.88;;;15.40;74.90;;;;;;2283267;62;30121;-73
2022/01/30 18:57:41;;;;;;;10.63;4.70;;;15.50;74.90;;;;;;2268862;62;30107;-72
2022/01/30 19:00:08;;;;;;;9.70;4.50;;;15.60;74.70;;;;;;2282977;62;30883;-73
2022/01/30 19:02:33;;;;;;;11.57;4.75;;;15.70;74.60;;;;;;2274935;62;30236;-71
2022/01/30 19:04:59;;;;;;;8.63;4.47;;;15.80;74.50;;;;;;2283310;62;29998;-71
2022/01/30 19:07:25;;;;;;;9.27;4.28;;;15.90;74.30;;;;;;2275553;62;30816;-73
2022/01/30 19:09:54;;;;;;;9.13;3.50;;;15.90;74.10;;;;;;2281633;62;30943;-71
2022/01/30 19:12:29;;;;;;;10.38;4.18;;;16.00;74.00;;;;;;2275713;62;31934;-72
2022/01/30 19:14:55;;;;;;;8.38;4.03;;;16.10;73.90;;;;;;2282240;62;30959;-71
2022/01/30 19:17:20;;;;;;;6.10;3.20;;;16.10;73.70;;;;;;2284511;62;30091;-70
2022/01/30 19:19:46;;;;;;;6.55;3.58;;;16.10;73.60;;;;;;2277009;62;30156;-71
2022/01/30 19:22:13;;;;;;;9.80;3.65;;;16.20;73.60;;;;;;2284033;62;30448;-71
2022/01/30 19:24:39;;;;;;;7.75;3.67;;;16.20;73.50;;;;;;2284284;62;30586;-71
2022/01/30 19:27:05;;;;;;;11.70;3.90;;;16.20;73.40;;;;;;2277089;62;30075;-71
2022/01/30 19:29:31;;;;;;;8.82;3.60;;;16.30;73.40;;;;;;2276892;62;30215;-71
2022/01/30 19:31:56;;;;;;;10.00;3.78;;;16.30;73.30;;;;;;2284395;62;30274;-71
2022/01/30 19:34:23;;;;;;;9.45;3.83;;;16.30;73.30;;;;;;2284271;62;30201;-71
2022/01/30 19:36:50;;;;;;;9.10;3.33;;;16.30;73.20;;;;;;2276696;62;30216;-71
2022/01/30 19:39:16;;;;;;;7.00;3.50;;;16.40;73.20;;;;;;2284238;62;30050;-71
2022/01/30 19:41:44;;;;;;;7.30;3.03;;;16.40;73.10;;;;;;2284312;62;30477;-71
2022/01/30 19:44:12;;;;;;;8.38;3.28;;;16.40;73.10;;;;;;2283892;62;30186;-71
2022/01/30 19:46:39;;;;;;;7.43;3.33;;;16.50;73.00;;;;;;2276913;62;30255;-71
2022/01/30 19:49:07;;;;;;;7.97;3.45;;;16.50;72.90;;;;;;2276763;62;30099;-74
2022/01/30 19:51:33;;;;;;;8.82;3.13;;;16.50;72.90;;;;;;2284159;62;30458;-71
2022/01/30 19:53:59;;;;;;;4.82;2.70;;;16.50;72.70;;;;;;2284174;62;30119;-70
2022/01/30 19:56:32;;;;;;;8.50;3.50;;;16.60;72.70;;;;;;2283859;62;30322;-70
2022/01/30 19:58:58;;;;;;;7.07;3.13;;;16.60;72.60;;;;;;2284295;62;31166;-70
2022/01/30 20:01:24;;;;;;;6.15;3.05;;;16.60;72.50;;;;;;2284177;62;30191;-70
2022/01/30 20:03:53;;;;;;;7.25;3.03;;;16.70;72.50;;;;;;2284021;62;30275;-71
2022/01/30 20:06:19;;;;;;;6.32;3.13;;;16.70;72.40;;;;;;2283966;62;31038;-70
2022/01/30 20:08:44;;;;;;;6.47;2.92;;;16.80;72.20;;;;;;2284070;62;30208;-71
2022/01/30 20:11:10;;;;;;;7.18;2.55;;;16.80;72.00;;;;;;2276819;62;30728;-71
2022/01/30 20:13:36;;;;;;;5.70;3.00;;;16.90;72.00;;;;;;2283068;62;30574;-79
2022/01/30 20:16:02;;;;;;;4.53;2.70;;;16.80;71.90;;;;;;2275793;62;30212;-75
2022/01/30 20:18:34;;;;;;;7.28;3.95;;;16.90;71.80;;;;;;2283283;62;30150;-70
2022/01/30 20:21:00;;;;;;;15.30;4.75;;;16.90;71.70;;;;;;2283077;62;30083;-71
2022/01/30 20:23:26;;;;;;;6.43;3.30;;;16.90;71.70;;;;;;2284135;62;30931;-71
2022/01/30 20:25:51;;;;;;;5.68;3.00;;;16.90;71.50;;;;;;2283792;62;30137;-71
2022/01/30 20:28:17;;;;;;;7.70;3.53;;;17.00;71.40;;;;;;2284010;62;30778;-71
2022/01/30 20:30:48;;;;;;;6.45;3.20;;;17.00;71.30;;;;;;2284117;62;30768;-71
2022/01/30 20:33:14;;;;;;;5.90;3.13;;;17.10;71.10;;;;;;2283969;62;30429;-70
2022/01/30 20:35:41;;;;;;;5.47;3.10;;;17.10;71.00;;;;;;2284022;62;30289;-70
2022/01/30 20:38:08;;;;;;;5.97;2.75;;;17.10;70.90;;;;;;2283048;62;30193;-70
2022/01/30 20:40:34;;;;;;;7.10;3.00;;;17.20;70.90;;;;;;2282870;62;30394;-71
2022/01/30 20:43:00;;;;;;;5.97;2.80;;;17.20;70.80;;;;;;2274058;62;30263;-71
2022/01/30 20:45:26;;;;;;;5.25;2.53;;;17.20;70.60;;;;;;2283512;62;30188;-71
2022/01/30 20:47:52;;;;;;;4.68;2.85;;;17.30;70.50;;;;;;2283568;62;30928;-71
2022/01/30 20:50:17;;;;;;;4.57;2.83;;;17.20;70.50;;;;;;2268271;62;30854;-73
2022/01/30 20:52:43;;;;;;;6.80;3.08;;;17.20;70.60;;;;;;2275590;62;30105;-73
2022/01/30 20:55:09;;;;;;;6.65;3.05;;;17.30;70.70;;;;;;2275591;62;30217;-73
2022/01/30 20:57:35;;;;;;;5.22;2.88;;;17.30;70.60;;;;;;2276074;62;31185;-72
2022/01/30 21:00:02;;;;;;;6.13;2.97;;;17.20;70.50;;;;;;2280065;62;30498;-73
2022/01/30 21:02:28;;;;;;;5.07;3.00;;;17.20;70.40;;;;;;2282336;62;30500;-72
2022/01/30 21:04:54;;;;;;;4.25;2.78;;;17.20;70.40;;;;;;2283724;62;30063;-73
2022/01/30 21:07:20;;;;;;;5.75;2.78;;;17.20;70.40;;;;;;2283615;62;30889;-73
2022/01/30 21:09:49;;;;;;;5.05;2.80;;;17.20;70.30;;;;;;2269553;62;30562;-72
2022/01/30 21:12:15;;;;;;;5.22;2.83;;;17.20;70.30;;;;;;2283981;62;30227;-73
2022/01/30 21:14:41;;;;;;;6.07;2.97;;;17.20;70.20;;;;;;2283822;62;30147;-74
2022/01/30 21:17:07;;;;;;;5.75;2.72;;;17.20;70.20;;;;;;2283722;62;31547;-73
2022/01/30 21:19:32;;;;;;;6.25;3.10;;;17.20;70.20;;;;;;2283672;62;30652;-74
2022/01/30 21:22:00;;;;;;;5.72;3.28;;;17.20;70.20;;;;;;2283566;62;30419;-70
2022/01/30 21:24:28;;;;;;;4.68;2.55;;;17.20;70.20;;;;;;2283576;62;30764;-72
2022/01/30 21:26:54;;;;;;;6.30;2.63;;;17.10;70.10;;;;;;2283664;62;30878;-71
2022/01/30 21:29:19;;;;;;;5.00;2.53;;;17.10;70.00;;;;;;2282974;62;30428;-71
2022/01/30 21:31:45;;;;;;;4.53;2.30;;;17.10;70.00;;;;;;2283490;62;30070;-72
2022/01/30 21:34:12;;;;;;;3.75;2.20;;;17.10;70.00;;;;;;2283293;62;30001;-71
2022/01/30 21:36:38;;;;;;;5.03;2.30;;;17.10;69.90;;;;;;2282318;62;30134;-72
2022/01/30 21:39:06;;;;;;;6.35;2.75;;;17.10;69.90;;;;;;2283654;62;30561;-72
2022/01/30 21:41:31;;;;;;;5.35;2.50;;;17.10;69.80;;;;;;2282876;62;30048;-73
2022/01/30 21:43:57;;;;;;;6.85;2.60;;;17.10;69.80;;;;;;2283532;62;30743;-75
2022/01/30 21:46:23;;;;;;;6.18;2.67;;;17.10;69.70;;;;;;2283637;62;30411;-74
2022/01/30 21:48:49;;;;;;;5.15;2.65;;;17.10;69.70;;;;;;2283623;62;30451;-74
2022/01/30 21:51:15;;;;;;;4.78;2.55;;;17.20;69.70;;;;;;2283900;62;30756;-73
2022/01/30 21:53:42;;;;;;;8.00;2.92;;;17.20;69.60;;;;;;2276438;62;30549;-75
2022/01/30 21:56:08;;;;;;;5.03;2.65;;;17.10;69.50;;;;;;2283433;62;30842;-74
2022/01/30 21:58:34;;;;;;;4.72;2.50;;;17.10;69.40;;;;;;2269471;62;30519;-75
2022/01/30 22:01:00;;;;;;;6.18;2.80;;;17.10;69.40;;;;;;2276313;62;30555;-74
2022/01/30 22:03:26;;;;;;;4.97;2.78;;;17.10;69.40;;;;;;2283518;62;29975;-73
2022/01/30 22:05:52;;;;;;;5.55;2.60;;;17.10;69.40;;;;;;2282653;62;30742;-73
2022/01/30 22:08:18;;;;;;;4.45;2.40;;;17.10;69.40;;;;;;2283184;62;30472;-74
2022/01/30 22:10:44;;;;;;;4.05;2.10;;;17.10;69.40;;;;;;2283308;62;30121;-72
2022/01/30 22:13:12;;;;;;;6.38;2.55;;;17.10;69.40;;;;;;2283555;62;30190;-73
2022/01/30 22:15:38;;;;;;;4.65;2.30;;;17.10;69.40;;;;;;2283547;62;31059;-73
2022/01/30 22:18:05;;;;;;;4.38;2.35;;;17.10;68.70;;;;;;2268368;62;30576;-74
2022/01/30 22:20:33;;;;;;;4.65;2.25;;;17.10;69.30;;;;;;2283584;62;30031;-72
2022/01/30 22:22:59;;;;;;;5.47;2.63;;;17.10;69.30;;;;;;2269299;62;30206;-73
2022/01/30 22:25:25;;;;;;;5.55;2.63;;;17.10;69.40;;;;;;2274316;62;30833;-75
2022/01/30 22:27:53;;;;;;;5.90;2.58;;;17.10;69.30;;;;;;2274561;62;30525;-75
2022/01/30 22:30:22;;;;;;;4.70;2.40;;;17.10;69.30;;;;;;2274100;62;30577;-73
2022/01/30 22:32:47;;;;;;;6.70;2.58;;;17.10;69.30;;;;;;2273602;62;30016;-70
2022/01/30 22:35:14;;;;;;;4.25;2.20;;;17.10;69.30;;;;;;2271094;62;30897;-71
2022/01/30 22:37:42;;;;;;;5.22;2.42;;;17.10;69.30;;;;;;2267282;62;30424;-73
2022/01/30 22:40:10;;;;;;;4.40;2.38;;;17.10;69.30;;;;;;2267418;62;30130;-71
2022/01/30 22:42:36;;;;;;;5.30;2.58;;;17.10;69.30;;;;;;2270933;62;30145;-75
2022/01/30 22:45:03;;;;;;;5.35;2.60;;;17.10;69.30;;;;;;2274477;62;30634;-75
2022/01/30 22:47:30;;;;;;;4.90;2.50;;;17.10;69.20;;;;;;2275452;62;30580;-76
2022/01/30 22:49:56;;;;;;;8.20;2.78;;;17.10;69.20;;;;;;2269123;62;30099;-77
2022/01/30 22:52:22;;;;;;;7.00;2.70;;;17.10;69.20;;;;;;2276280;62;30462;-75
2022/01/30 22:54:48;;;;;;;4.88;2.50;;;17.00;69.10;;;;;;2276510;62;30889;-75
2022/01/30 22:57:14;;;;;;;5.65;2.50;;;17.00;69.10;;;;;;2276385;62;30259;-74
2022/01/30 22:59:39;;;;;;;6.22;2.38;;;17.00;69.00;;;;;;2275974;62;29985;-74
2022/01/30 23:02:05;;;;;;;4.63;2.60;;;17.00;69.00;;;;;;2275863;62;30315;-74
2022/01/30 23:04:32;;;;;;;6.15;3.42;;;17.10;69.00;;;;;;2276281;62;30050;-75
2022/01/30 23:06:58;;;;;;;6.18;3.00;;;17.00;69.00;;;;;;2268924;62;30478;-73
2022/01/30 23:09:24;;;;;;;5.53;2.67;;;17.00;69.00;;;;;;2276319;62;30131;-75
2022/01/30 23:11:50;;;;;;;4.90;2.60;;;17.10;69.00;;;;;;2268930;62;30147;-74
2022/01/30 23:14:15;;;;;;;5.30;2.67;;;17.00;68.90;;;;;;2276098;62;30964;-74
